Savage, MD

8:52 AM EDT on October 25, 2014 (GMT -0400)
Savage/Jessup | Change Station
CLOSE
Current Station
Personal Weather Station
Location: Jessup, MD
Elevation: 312 ft
Nearby Weather Stations

Elev 312 ft 39.15 °N, 76.83 °W | Updated 23 seconds ago

Clear
Clear
44.8 °F
Feels Like 45 °F
N
1.1
Wind Variable Wind from NNW
Gusts 0.0 mph

Today
High -- | Low -- °F
--% Chance of Precip.
Yesterday
High -- | Low -- °F
Precip. -- in
7:27 AM 6:14 PM
Waxing Crescent, 3% visible
Pressure 29.98 in
Visibility 7.0 miles
Clouds Clear
Windchill 45 °F
Dew Point 42 °F
Humidity 90%
Rainfall 0.00 in
Snow Depth Not available.
UV 1 out of 12
Pollen 1.20 out of 12
Air Quality Not available.
Flu Activity Sporadic
METAR KFME 251239Z AUTO 00000KT 7SM CLR 04/03 A2998 RMK AO1

More Conditions Fewer Conditions

Pressure 29.98 in
Visibility 7.0 miles
Clouds Clear
Windchill 45 °F
Dew Point 42 °F
Humidity 90%
Rainfall 0.00 in
Snow Depth Not available.
UV 1 out of 12
Pollen 1.20 out of 12
Air Quality Not available.
Flu Activity Sporadic
METAR KFME 251239Z AUTO 00000KT 7SM CLR 04/03 A2998 RMK AO1

More Conditions Fewer Conditions

10-Day Weather Forecast

Almanac

Astronomy

Oct. 25, 2014 Rise Set
Actual Time 7:27 AM EDT 6:14 PM EDT
Civil Twilight 6:59 AM EDT 6:42 PM EDT
Nautical Twilight 6:28 AM EDT 7:13 PM EDT
Astronomical Twilight 5:57 AM EDT 7:44 PM EDT
Moon 9:03 AM EDT 7:36 PM EDT
Length of Visible Light 11h 42m
Length of Day
10h 47m
Tomorrow will be 2m 20s shorter.
Waxing Crescent, 3% of the Moon is Illuminated
Today
Waxing Crescent
Oct 30
First Quarter
Nov 6
Full
Nov 14
Last Quarter
Nov 22
New

Today's Extremes

State Highs State Lows

Community

WunderPhotos

Upload Photos

1,764,821 photos uploaded!

Nearby

Snow Depth

Station Depth Elevation
No new snow has been reported.

Earthquake Activity

City Distance Mag. Time & Date
No recent earthquake activity has been reported nearby.
Minimum magnitude displayed is 2.5.

Coastal Water Temperatures

Place Temperature
Baltimore, MD 64.0 °F
Tolchester Beach, MD 57.9 °F
Washington, DC 60.1 °F

Nearby Weather Stations